Defiance — WDJ2973 — position and weather

sailwx.info

Track history (hours):
 
Tides and Currents Weather Stations Pressure Air Temp Water Temp Dewpoint Dewpoint Depression Visibility Wind Speed Wind Dir Waves Ship Positions

Defiance

Owner: Edinger, Bill, Tiburon, CA. More information available from US FCC via Universal Licensing System and Coast Guard Vessel Documentation Center.

Last reported at 2018-Apr-14 01:53 UTC. Time now 2018-Jun-21 19:51 UTC.
Position N 33°17' W 119°57'.
Warning: this ship's position is months out of date.

Length 10 m.

Type: Sailing vessel. MMSI: 367763550.

Date/timePositionNaut miles runAvg speedWind from/ knotsBaromVisibWave heightAir tempDewpointWater temp
2018-Apr-14 01:53N 33°17' W 119°57'13 8.8
2018-Apr-14 00:24N 33°29' W 119°51'4 8.6
2018-Apr-13 23:59N 33°32' W 119°48'31 8.2
2018-Apr-13 20:10N 33°59' W 119°31'1 4.8
2018-Apr-13 19:57N 34°00' W 119°31'4 7.4
2018-Apr-13 19:25N 34°04' W 119°31'4 7.1
2018-Apr-13 18:50N 34°08' W 119°33'3 6.5
2018-Apr-13 18:23N 34°11' W 119°34'2 3.8
2018-Apr-13 17:50N 34°13' W 119°35'2 5.2
2018-Apr-13 17:30N 34°14' W 119°36'3 5.1
2018-Apr-13 16:59N 34°17' W 119°37'2 4.8
2018-Apr-13 16:28N 34°19' W 119°38'  
2018-Apr-11 07:08N 34°22' W 119°42'1 3.8
2018-Apr-11 06:57N 34°22' W 119°43'3 5.5
2018-Apr-11 06:28N 34°21' W 119°46'2 4.6
2018-Apr-11 05:57N 34°22' W 119°49'3 5.5
2018-Apr-11 05:30N 34°22' W 119°52'3 5.3
2018-Apr-11 05:00N 34°22' W 119°55'2 3.8
2018-Apr-11 04:29N 34°22' W 119°58'3 6.5
2018-Apr-11 04:00N 34°23' W 120°02'4 6.1
2018-Apr-11 03:25N 34°23' W 120°06'5 7.0
2018-Apr-11 02:41N 34°23' W 120°12'310.3
2018-Apr-11 02:22N 34°23' W 120°16'3 8.3
2018-Apr-11 02:00N 34°22' W 120°20'4 8.0
2018-Apr-11 01:29N 34°22' W 120°25'5 9.8
2018-Apr-11 01:00N 34°23' W 120°30'510.2
2018-Apr-11 00:29N 34°25' W 120°36'5 9.8
2018-Apr-11 00:00N 34°28' W 120°41'5 9.2
2018-Apr-10 23:30N 34°30' W 120°46'4 7.7
2018-Apr-10 23:00N 34°33' W 120°49'4 7.5
2018-Apr-10 22:27N 34°37' W 120°50'4 9.1
2018-Apr-10 22:00N 34°41' W 120°51'4 7.7
2018-Apr-10 21:30N 34°45' W 120°52'4 8.3
2018-Apr-10 21:00N 34°49' W 120°53'5 9.5
2018-Apr-10 20:29N 34°54' W 120°55'4 8.5
2018-Apr-10 20:00N 34°57' W 120°57'4 8.7
2018-Apr-10 19:30N 35°01' W 120°59'4 8.7
2018-Apr-10 19:00N 35°06' W 121°00'6 7.9
2018-Apr-10 18:15N 35°11' W 121°03'2 7.8
2018-Apr-10 17:59N 35°13' W 121°04'6 7.2
2018-Apr-10 17:09N 35°18' W 121°07'2 3.4
2018-Apr-10 16:40N 35°20' W 121°09'1 4.1
2018-Apr-10 16:26N 35°20' W 121°10'113 6.6
2018-Apr-09 23:20N 36°57' W 122°22'3 5.6
2018-Apr-09 22:52N 36°59' W 122°23'3 7.3
2018-Apr-09 22:30N 37°02' W 122°24'3 6.3
2018-Apr-09 21:59N 37°05' W 122°25'4 7.2
2018-Apr-09 21:23N 37°09' W 122°27'3 6.7
2018-Apr-09 20:56N 37°12' W 122°28'4 6.8
2018-Apr-09 20:21N 37°15' W 122°30'2 6.7
2018-Apr-09 20:00N 37°18' W 122°31'3 6.2
2018-Apr-09 19:30N 37°21' W 122°32'3 6.1
2018-Apr-09 18:58N 37°24' W 122°33'2 4.6
2018-Apr-09 18:29N 37°26' W 122°33'3 6.9
2018-Apr-09 17:59N 37°29' W 122°34'3 6.7
2018-Apr-09 17:30N 37°32' W 122°35'4 6.6
2018-Apr-09 16:56N 37°36' W 122°36'2 5.5
2018-Apr-09 16:30N 37°38' W 122°37'3 5.1
2018-Apr-09 15:57N 37°41' W 122°37'4 6.0
2018-Apr-09 15:15N 37°45' W 122°38'  
Track history (hours):
 
Tides and Currents Weather Stations Pressure Air Temp Water Temp Dewpoint Dewpoint Depression Visibility Wind Speed Wind Dir Waves Ship Positions

Defiance

Owner: Edinger, Bill, Tiburon, CA. More information available from US FCC via Universal Licensing System and Coast Guard Vessel Documentation Center.

Last reported at 2018-Apr-14 01:53 UTC. Time now 2018-Jun-21 19:51 UTC.
Position N 33°17' W 119°57'.
Warning: this ship's position is months out of date.

Length 10 m.

Type: Sailing vessel. MMSI: 367763550.

Date/timePositionNaut miles runAvg speedWind from/ knotsBaromVisibWave heightAir tempDewpointWater temp
2018-Apr-14 01:53N 33°17' W 119°57'13 8.8
2018-Apr-14 00:24N 33°29' W 119°51'4 8.6
2018-Apr-13 23:59N 33°32' W 119°48'31 8.2
2018-Apr-13 20:10N 33°59' W 119°31'1 4.8
2018-Apr-13 19:57N 34°00' W 119°31'4 7.4
2018-Apr-13 19:25N 34°04' W 119°31'4 7.1
2018-Apr-13 18:50N 34°08' W 119°33'3 6.5
2018-Apr-13 18:23N 34°11' W 119°34'2 3.8
2018-Apr-13 17:50N 34°13' W 119°35'2 5.2
2018-Apr-13 17:30N 34°14' W 119°36'3 5.1
2018-Apr-13 16:59N 34°17' W 119°37'2 4.8
2018-Apr-13 16:28N 34°19' W 119°38'  
2018-Apr-11 07:08N 34°22' W 119°42'1 3.8
2018-Apr-11 06:57N 34°22' W 119°43'3 5.5
2018-Apr-11 06:28N 34°21' W 119°46'2 4.6
2018-Apr-11 05:57N 34°22' W 119°49'3 5.5
2018-Apr-11 05:30N 34°22' W 119°52'3 5.3
2018-Apr-11 05:00N 34°22' W 119°55'2 3.8
2018-Apr-11 04:29N 34°22' W 119°58'3 6.5
2018-Apr-11 04:00N 34°23' W 120°02'4 6.1
2018-Apr-11 03:25N 34°23' W 120°06'5 7.0
2018-Apr-11 02:41N 34°23' W 120°12'310.3
2018-Apr-11 02:22N 34°23' W 120°16'3 8.3
2018-Apr-11 02:00N 34°22' W 120°20'4 8.0
2018-Apr-11 01:29N 34°22' W 120°25'5 9.8
2018-Apr-11 01:00N 34°23' W 120°30'510.2
2018-Apr-11 00:29N 34°25' W 120°36'5 9.8
2018-Apr-11 00:00N 34°28' W 120°41'5 9.2
2018-Apr-10 23:30N 34°30' W 120°46'4 7.7
2018-Apr-10 23:00N 34°33' W 120°49'4 7.5
2018-Apr-10 22:27N 34°37' W 120°50'4 9.1
2018-Apr-10 22:00N 34°41' W 120°51'4 7.7
2018-Apr-10 21:30N 34°45' W 120°52'4 8.3
2018-Apr-10 21:00N 34°49' W 120°53'5 9.5
2018-Apr-10 20:29N 34°54' W 120°55'4 8.5
2018-Apr-10 20:00N 34°57' W 120°57'4 8.7
2018-Apr-10 19:30N 35°01' W 120°59'4 8.7
2018-Apr-10 19:00N 35°06' W 121°00'6 7.9
2018-Apr-10 18:15N 35°11' W 121°03'2 7.8
2018-Apr-10 17:59N 35°13' W 121°04'6 7.2
2018-Apr-10 17:09N 35°18' W 121°07'2 3.4
2018-Apr-10 16:40N 35°20' W 121°09'1 4.1
2018-Apr-10 16:26N 35°20' W 121°10'113 6.6
2018-Apr-09 23:20N 36°57' W 122°22'3 5.6
2018-Apr-09 22:52N 36°59' W 122°23'3 7.3
2018-Apr-09 22:30N 37°02' W 122°24'3 6.3
2018-Apr-09 21:59N 37°05' W 122°25'4 7.2
2018-Apr-09 21:23N 37°09' W 122°27'3 6.7
2018-Apr-09 20:56N 37°12' W 122°28'4 6.8
2018-Apr-09 20:21N 37°15' W 122°30'2 6.7
2018-Apr-09 20:00N 37°18' W 122°31'3 6.2
2018-Apr-09 19:30N 37°21' W 122°32'3 6.1
2018-Apr-09 18:58N 37°24' W 122°33'2 4.6
2018-Apr-09 18:29N 37°26' W 122°33'3 6.9
2018-Apr-09 17:59N 37°29' W 122°34'3 6.7
2018-Apr-09 17:30N 37°32' W 122°35'4 6.6
2018-Apr-09 16:56N 37°36' W 122°36'2 5.5
2018-Apr-09 16:30N 37°38' W 122°37'3 5.1
2018-Apr-09 15:57N 37°41' W 122°37'4 6.0
2018-Apr-09 15:15N 37°45' W 122°38'  

Dump ship's entire track history